createdAt,value
2018-07-03T00:01:12.906Z,27.3
2018-07-03T00:04:10.165Z,27.4
2018-07-03T00:07:06.934Z,27.4
2018-07-03T00:10:04.130Z,27.5
2018-07-03T00:13:00.913Z,27.5
2018-07-03T00:18:55.127Z,27.6
2018-07-03T00:21:52.003Z,27.5
2018-07-03T00:24:49.146Z,27.5
2018-07-03T00:30:43.158Z,27.5
2018-07-03T00:33:39.975Z,27.5
2018-07-03T00:36:37.165Z,27.6
2018-07-03T00:39:34.003Z,27.6
2018-07-03T00:42:31.157Z,27.6
2018-07-03T00:48:25.179Z,27.7
2018-07-03T00:51:22.000Z,27.6
2018-07-03T00:54:19.176Z,27.7
2018-07-03T00:57:16.010Z,27.8
2018-07-03T01:00:13.183Z,27.7
2018-07-03T01:03:10.016Z,27.8
2018-07-03T01:06:07.222Z,27.8
2018-07-03T01:09:04.026Z,27.8
2018-07-03T01:12:01.206Z,27.8
2018-07-03T01:14:58.030Z,27.9
2018-07-03T01:20:52.219Z,27.8
2018-07-03T01:23:49.053Z,27.9
2018-07-03T01:29:43.221Z,27.9
2018-07-03T01:32:40.066Z,27.9
2018-07-03T01:35:37.284Z,28
2018-07-03T01:38:34.064Z,28
2018-07-03T01:41:31.238Z,28
2018-07-03T01:44:28.072Z,28
2018-07-03T01:47:25.245Z,28
2018-07-03T01:50:22.088Z,28
2018-07-03T01:53:19.250Z,28
2018-07-03T01:56:16.078Z,28
2018-07-03T01:59:13.275Z,28
2018-07-03T02:02:10.100Z,28
2018-07-03T02:05:07.342Z,28.1
2018-07-03T02:08:04.112Z,28.1
2018-07-03T02:11:01.430Z,28.1
2018-07-03T02:13:58.121Z,28.1
2018-07-03T02:16:55.279Z,28.1
2018-07-03T02:19:52.129Z,28.1
2018-07-03T02:22:49.311Z,28.1
2018-07-03T02:25:46.194Z,28.1
2018-07-03T02:34:37.754Z,28.2
2018-07-03T02:43:28.345Z,28.3
2018-07-03T02:46:25.221Z,28.4
2018-07-03T02:52:19.356Z,28.6
2018-07-03T02:55:16.186Z,28.8
2018-07-03T02:58:13.356Z,28.9
2018-07-03T03:01:10.257Z,29.1
2018-07-03T03:04:07.880Z,29.3
2018-07-03T03:10:01.402Z,30
2018-07-03T03:15:55.369Z,30.5
2018-07-03T03:18:52.225Z,30.7
2018-07-03T03:24:46.392Z,31.1
2018-07-03T03:30:40.395Z,31.4
2018-07-03T03:33:37.231Z,31.5
2018-07-03T03:36:34.462Z,31.7
2018-07-03T03:42:28.407Z,31.9
2018-07-03T03:48:22.423Z,32.2
2018-07-03T03:54:16.432Z,32.4
2018-07-03T03:57:13.260Z,32.5
2018-07-03T04:00:10.443Z,32.6
2018-07-03T04:03:07.284Z,32.7
2018-07-03T04:06:04.455Z,32.8
2018-07-03T04:09:01.291Z,32.7
2018-07-03T04:11:58.451Z,32.6
2018-07-03T04:17:52.506Z,32.6
2018-07-03T04:23:46.510Z,32.6
2018-07-03T04:26:43.301Z,32.8
2018-07-03T04:29:40.471Z,32.9
2018-07-03T04:35:34.467Z,33.1
2018-07-03T04:47:22.391Z,33.6
2018-07-03T04:50:19.377Z,33.6
2018-07-03T04:53:16.592Z,33.7
2018-07-03T04:56:13.356Z,33.5
2018-07-03T04:59:10.479Z,33.6
2018-07-03T05:02:07.394Z,33.6
2018-07-03T05:05:04.484Z,33.5
2018-07-03T05:08:01.408Z,33.6
2018-07-03T05:10:58.490Z,33.6
2018-07-03T05:13:55.403Z,33.3
2018-07-03T05:22:46.496Z,33.8
2018-07-03T05:25:43.418Z,33.8
2018-07-03T05:28:40.500Z,33.9
2018-07-03T05:31:37.520Z,33.7
2018-07-03T05:34:34.476Z,33.6
2018-07-03T05:37:31.459Z,33.7
2018-07-03T05:40:28.503Z,33.6
2018-07-03T05:43:25.438Z,33.5
2018-07-03T05:46:22.644Z,33.4
2018-07-03T05:52:16.513Z,33.1
2018-07-03T05:55:13.457Z,33
2018-07-03T05:58:10.643Z,32.8
2018-07-03T06:01:07.489Z,32.8
2018-07-03T06:04:04.489Z,32.9
2018-07-03T06:07:01.483Z,32.9
2018-07-03T06:09:58.690Z,33.2
2018-07-03T06:15:52.662Z,33.3
2018-07-03T06:21:46.601Z,33.6
2018-07-03T06:24:43.479Z,33.8
2018-07-03T06:27:40.681Z,34
2018-07-03T06:30:37.513Z,33.9
2018-07-03T06:33:34.534Z,34
2018-07-03T06:39:28.750Z,34.1
2018-07-03T06:42:25.519Z,34.1
2018-07-03T06:45:22.677Z,34
2018-07-03T06:48:19.541Z,33.9
2018-07-03T06:51:16.705Z,33.9
2018-07-03T06:54:13.549Z,34.1
2018-07-03T06:57:10.726Z,33.8
2018-07-03T07:00:07.585Z,33.9
2018-07-03T07:03:04.721Z,34.1
2018-07-03T07:06:01.549Z,34.4
2018-07-03T07:08:58.848Z,34.1
2018-07-03T07:14:52.797Z,34.1
2018-07-03T07:17:49.581Z,34
2018-07-03T07:20:46.825Z,33.8
2018-07-03T07:23:43.632Z,33.8
2018-07-03T07:26:40.749Z,33.5
2018-07-03T07:29:37.621Z,33.8
2018-07-03T07:32:34.784Z,33.6
2018-07-03T07:35:31.680Z,33.6
2018-07-03T07:38:28.832Z,33.4
2018-07-03T07:41:25.711Z,33
2018-07-03T07:44:22.856Z,33.4
2018-07-03T07:53:13.831Z,34
2018-07-03T07:56:11.016Z,34.2
2018-07-03T07:59:07.636Z,34.1
2018-07-03T08:07:58.876Z,33.8
2018-07-03T08:10:55.684Z,33.8
2018-07-03T08:16:49.855Z,33.6
2018-07-03T08:19:46.737Z,33.8
2018-07-03T08:22:43.875Z,33.8
2018-07-03T08:25:40.742Z,34.1
2018-07-03T08:28:37.952Z,34.3
2018-07-03T08:31:34.782Z,34.2
2018-07-03T08:37:28.953Z,33.8
2018-07-03T08:40:25.774Z,33.5
2018-07-03T08:43:22.900Z,33.3
2018-07-03T08:46:19.754Z,33.4
2018-07-03T08:49:16.907Z,33.3
2018-07-03T08:52:13.816Z,33.4
2018-07-03T08:58:08.049Z,33.1
2018-07-03T09:01:04.815Z,33.2
2018-07-03T09:06:58.937Z,32.9
2018-07-03T09:09:55.801Z,32.8
2018-07-03T09:12:52.993Z,32.7
2018-07-03T09:21:44.011Z,32.5
2018-07-03T09:24:40.806Z,32.4
2018-07-03T09:27:37.977Z,32.3
2018-07-03T09:30:34.817Z,32.2
2018-07-03T09:33:31.985Z,32.2
2018-07-03T09:36:28.885Z,32.1
2018-07-03T09:42:23.046Z,32.1
2018-07-03T09:48:17.043Z,32
2018-07-03T09:51:13.901Z,31.9
2018-07-03T09:54:10.984Z,31.8
2018-07-03T10:00:05.025Z,32
2018-07-03T10:08:56.035Z,31.9
2018-07-03T10:11:52.904Z,31.9
2018-07-03T10:20:44.062Z,31.8
2018-07-03T10:23:40.884Z,31.8
2018-07-03T10:29:35.133Z,31.7
2018-07-03T10:32:31.968Z,31.6
2018-07-03T10:35:29.094Z,31.7
2018-07-03T10:44:20.080Z,31.8
2018-07-03T10:56:08.137Z,31.6
2018-07-03T10:59:05.018Z,31.6
2018-07-03T11:16:47.205Z,31.2
2018-07-03T11:19:44.156Z,31.1
2018-07-03T11:22:41.155Z,31.1
2018-07-03T11:31:32.268Z,30.9
2018-07-03T11:34:29.072Z,30.8
2018-07-03T11:37:26.284Z,30.8
2018-07-03T11:49:14.220Z,30.7
2018-07-03T11:52:11.046Z,30.6
2018-07-03T11:55:08.248Z,30.6
2018-07-03T11:58:05.032Z,30.6
2018-07-03T12:01:03.037Z,30.6
2018-07-03T12:06:56.264Z,30.6
2018-07-03T12:09:53.109Z,30.5
2018-07-03T12:21:41.251Z,30.4
2018-07-03T12:24:38.051Z,30.4
2018-07-03T12:27:35.350Z,30.4
2018-07-03T12:30:32.149Z,30.4
2018-07-03T12:33:29.110Z,30.4
2018-07-03T12:39:23.267Z,30.4
2018-07-03T12:42:20.094Z,30.3
2018-07-03T12:45:17.347Z,30.3
2018-07-03T12:57:05.359Z,30.3
2018-07-03T13:00:02.214Z,30.4
2018-07-03T13:02:59.382Z,30.3
2018-07-03T13:05:56.135Z,30.3
2018-07-03T13:08:53.339Z,30.2
2018-07-03T13:17:44.332Z,30.2
2018-07-03T13:20:41.168Z,30.2
2018-07-03T13:23:38.317Z,30.2
2018-07-03T13:38:23.352Z,30
2018-07-03T13:44:17.272Z,30
2018-07-03T13:47:14.236Z,30
2018-07-03T13:53:08.433Z,30
2018-07-03T13:56:05.269Z,30
2018-07-03T13:59:02.449Z,30
2018-07-03T14:04:56.391Z,29.9
2018-07-03T14:07:53.230Z,29.9
2018-07-03T14:10:50.459Z,29.8
2018-07-03T14:13:47.236Z,29.8
2018-07-03T14:16:44.294Z,29.8
2018-07-03T14:25:35.525Z,29.9
2018-07-03T14:34:26.488Z,29.8
2018-07-03T14:37:23.344Z,29.8
2018-07-03T14:43:17.511Z,29.8
2018-07-03T14:46:14.300Z,29.8
2018-07-03T14:49:11.464Z,29.7
2018-07-03T14:55:05.475Z,29.8
2018-07-03T15:03:56.506Z,29.8
2018-07-03T15:06:53.336Z,29.8
2018-07-03T15:09:50.490Z,29.7
2018-07-03T15:15:44.546Z,29.7
2018-07-03T15:18:41.392Z,29.7
2018-07-03T15:21:38.571Z,29.7
2018-07-03T15:24:35.349Z,29.7
2018-07-03T15:27:32.437Z,29.7
2018-07-03T15:30:29.392Z,29.7
2018-07-03T15:33:26.607Z,29.7
2018-07-03T15:36:23.408Z,29.7
2018-07-03T15:39:20.580Z,29.7
2018-07-03T15:45:14.568Z,29.6
2018-07-03T15:48:11.428Z,29.6
2018-07-03T15:51:08.604Z,29.7
2018-07-03T15:54:05.396Z,29.7
2018-07-03T15:57:02.555Z,29.7
2018-07-03T15:59:59.403Z,29.7
2018-07-03T16:02:56.554Z,29.6
2018-07-03T16:05:53.378Z,29.6
2018-07-03T16:08:50.538Z,29.6
2018-07-03T16:14:44.713Z,29.6
2018-07-03T16:20:38.597Z,29.6
2018-07-03T16:23:35.478Z,29.6
2018-07-03T16:26:32.665Z,29.6
2018-07-03T16:29:29.484Z,29.6
2018-07-03T16:32:26.643Z,29.6
2018-07-03T16:38:20.594Z,29.6
2018-07-03T16:41:17.460Z,29.6
2018-07-03T16:50:08.603Z,29.5
2018-07-03T16:58:59.713Z,29.6
2018-07-03T17:01:56.500Z,29.6
2018-07-03T17:04:53.719Z,29.6
2018-07-03T17:16:41.675Z,29.5
2018-07-03T17:22:35.683Z,29.5
2018-07-03T17:25:32.525Z,29.4
2018-07-03T17:28:29.815Z,29.4
2018-07-03T17:31:26.538Z,29.4
2018-07-03T17:37:20.706Z,29.4
2018-07-03T17:43:14.725Z,29.4
2018-07-03T17:46:11.546Z,29.4
2018-07-03T17:52:05.746Z,29.4
2018-07-03T17:57:59.732Z,29.3
2018-07-03T18:00:56.628Z,29.4
2018-07-03T18:06:50.801Z,29.3
2018-07-03T18:15:41.824Z,29.3
2018-07-03T18:21:35.874Z,29.4
2018-07-03T18:24:32.676Z,29.3
2018-07-03T18:27:29.841Z,29.3
2018-07-03T18:33:23.805Z,29.3
2018-07-03T18:39:17.821Z,29.3
2018-07-03T18:42:14.698Z,29.3
2018-07-03T18:45:11.808Z,29.3
2018-07-03T18:51:05.844Z,29.3
2018-07-03T18:56:59.885Z,29.2
2018-07-03T18:59:56.713Z,29.2
2018-07-03T19:02:53.821Z,29.2
2018-07-03T19:05:50.666Z,29.2
2018-07-03T19:11:44.719Z,29.2
2018-07-03T19:17:38.852Z,29.2
2018-07-03T19:26:29.825Z,29.2
2018-07-03T19:29:27.204Z,29.2
2018-07-03T19:32:23.883Z,29.1
2018-07-03T19:38:18.011Z,29.2
2018-07-03T19:47:09.370Z,29.1
2018-07-03T19:50:05.806Z,29.2
2018-07-03T19:55:59.838Z,29.2
2018-07-03T19:58:56.812Z,29.2
2018-07-03T20:01:54.063Z,29.1
2018-07-03T20:04:50.753Z,29.1
2018-07-03T20:10:44.960Z,29.1
2018-07-03T20:13:41.766Z,29.1
2018-07-03T20:16:38.937Z,29.1
2018-07-03T20:19:35.831Z,29.1
2018-07-03T20:22:33.007Z,29.1
2018-07-03T20:25:29.777Z,29.1
2018-07-03T20:28:26.953Z,29.2
2018-07-03T20:31:23.788Z,29.1
2018-07-03T20:40:15.027Z,29.1
2018-07-03T20:43:11.873Z,29.1
2018-07-03T20:46:09.043Z,29.1
2018-07-03T20:55:00.051Z,29
2018-07-03T20:57:56.888Z,29.1
2018-07-03T21:15:39.025Z,29
2018-07-03T21:27:27.062Z,29
2018-07-03T21:30:23.949Z,29
2018-07-03T21:39:15.092Z,29
2018-07-03T21:42:11.907Z,29
2018-07-03T21:45:09.142Z,29
2018-07-03T21:48:05.970Z,29
2018-07-03T21:51:03.127Z,29
2018-07-03T21:56:57.134Z,29
2018-07-03T21:59:54.416Z,28.9
2018-07-03T22:02:51.100Z,28.9
2018-07-03T22:05:47.955Z,28.9
2018-07-03T22:08:45.117Z,28.9
2018-07-03T22:11:41.990Z,28.9
2018-07-03T22:14:39.794Z,28.9
2018-07-03T22:17:35.978Z,28.9
2018-07-03T22:20:33.209Z,28.9
2018-07-03T22:23:30.380Z,28.9
2018-07-03T22:26:27.036Z,28.9
2018-07-03T22:32:21.084Z,28.8
2018-07-03T22:35:18.071Z,28.9
2018-07-03T22:38:15.181Z,28.8
2018-07-03T22:44:09.040Z,28.8
2018-07-03T22:47:05.995Z,28.8
2018-07-03T22:53:00.105Z,28.8
2018-07-03T22:55:57.008Z,28.8
2018-07-03T22:58:54.047Z,28.8
2018-07-03T23:01:51.032Z,28.8
2018-07-03T23:04:48.190Z,28.8
2018-07-03T23:07:45.070Z,28.8
2018-07-03T23:16:36.236Z,28.8
2018-07-03T23:19:33.031Z,28.8
2018-07-03T23:22:30.109Z,28.8
2018-07-03T23:25:27.597Z,28.8
2018-07-03T23:28:24.153Z,28.8
2018-07-03T23:31:21.143Z,28.8
2018-07-03T23:34:18.193Z,28.8
2018-07-03T23:37:15.114Z,28.8
2018-07-03T23:40:12.285Z,28.8
2018-07-03T23:49:03.295Z,28.9
2018-07-03T23:54:57.303Z,28.9
2018-07-03T23:57:54.136Z,29
